航空気象通報

ウインドサーファーのための航空気象通報による風予報です。

12/13-12/15の航空気象通報

2016年12月13日 21時53分35秒 | TAF
羽田空港
TAF RJTT 131105Z 1312/1418 36008KT 6000 -SHRA FEW008 BKN012
TEMPO 1312/1317 4000 SHRA BR FEW005 BKN008
BECMG 1316/1318 34018KT
TEMPO 1317/1321 34025G35KT 2000 +SHRA BR FEW005 BKN008
TEMPO 1321/1324 34025G35KT
日本時間13日21時-14日01時:360度から8ノットの風
01-03時:風が変化
03時-15日03時:340度から18ノットの風
但し、14日02-09時の間:ときどき340度から25ノット、突風35ノット


静岡空港
TAF RJNS 131106Z 1312/1418 34004KT 2000 -SHRA BR SCT001 BKN003
TEMPO 1312/1314 0800 SHRA FG
TEMPO 1314/1317 0800 +TSRA FG FEW001 BKN002 FEW015CB
BECMG 1316/1318 24014KT 6000 NSW FEW006 BKN008
BECMG 1320/1322 FEW010 BKN020
TEMPO 1403/1409 28025G35KT
日本時間13日21時-14日01時:340度から4ノットの風
01-03時:風が変化
03時-15日03時:240度から14ノットの風
、14日01-03時の後、
但し、13日23時-14日02時の間:ときどき

福岡空港
TAF RJFF 131105Z 1312/1418 34008KT 9999 FEW005 SCT035 BKN045
TEMPO 1400/1403 3000 TSRA BR FEW010 SCT015 FEW020CB BKN025
TEMPO 1403/1409 4000 SHRA BR
BECMG 1412/1415 14004KT
日本時間13日21時-14日21時:340度から8ノットの風
21-24時:風が変化
15日00-03時:140度から4ノットの風

但し、14日09-12時の間:ときどき
但し、14日12-18時の間:ときどき

那覇空港
TAF ROAH 131106Z 1312/1418 33020KT 9999 FEW025
日本時間13日21時-15日03時:330度から20ノットの風


石垣空港
TAF ROIG 131110Z 1312/1418 36010KT 9999 FEW025
TEMPO 1406/1415 02020G30KT
日本時間13日21時-15日03時:360度から10ノットの風
但し、14日15-24時の間:ときどき020度から20ノット、突風30ノット


マウイのカフルイ空港
PHOG 131131Z 1312/1412 35006KT P6SM FEW030 SCT050
FM132000 02012KT P6SM SCT025 SCT045
FM140500 04008KT P6SM FEW030 SCT050 AMD LTD TO VIS AND WIND TIL 131600
ハワイ時間13日02-10時:350度から6ノットの風
10-19時:020度から12ノットの風
19時-14日02時:040度から8ノットの風


サイパン空港
TAF PGSN 131124Z 1312/1412 09016KT P6SM VCSH SCT020 SCT040
マリアナ時間13日22時-15日22時:090度から16ノットの風

ジャンル:
お天気
コメント   この記事についてブログを書く
この記事をはてなブックマークに追加
« 12/12-12/14の航空気象通報 | トップ | 12/14-12/16の航空気象通報 »
最近の画像もっと見る

コメントを投稿

ブログ作成者から承認されるまでコメントは反映されません。

TAF」カテゴリの最新記事